createdAt,value
2022-12-05T00:00:51.668Z,0
2022-12-05T00:01:51.657Z,0
2022-12-05T00:02:51.665Z,0
2022-12-05T00:03:51.638Z,0
2022-12-05T00:04:51.632Z,0
2022-12-05T00:05:51.620Z,0
2022-12-05T00:06:51.616Z,0
2022-12-05T00:07:51.594Z,0
2022-12-05T00:08:51.588Z,0
2022-12-05T00:09:51.698Z,0
2022-12-05T00:10:51.564Z,0
2022-12-05T00:11:51.558Z,0
2022-12-05T00:12:51.553Z,0
2022-12-05T00:13:51.535Z,0
2022-12-05T00:14:51.628Z,0
2022-12-05T00:15:52.515Z,0
2022-12-05T00:16:51.513Z,0
2022-12-05T00:17:51.493Z,0
2022-12-05T00:18:51.486Z,0
2022-12-05T00:19:51.480Z,0
2022-12-05T00:20:51.461Z,0
2022-12-05T00:21:51.457Z,0
2022-12-05T00:22:51.482Z,0
2022-12-05T00:23:51.536Z,0
2022-12-05T00:24:51.423Z,0
2022-12-05T00:25:51.415Z,0
2022-12-05T00:26:51.408Z,0
2022-12-05T00:27:51.391Z,0
2022-12-05T00:28:51.451Z,0
2022-12-05T00:29:51.372Z,0
2022-12-05T00:30:51.367Z,0
2022-12-05T00:31:51.370Z,0
2022-12-05T00:32:51.339Z,0
2022-12-05T00:33:51.335Z,0
2022-12-05T00:34:51.340Z,0
2022-12-05T00:35:51.340Z,0
2022-12-05T00:36:51.308Z,0
2022-12-05T00:37:51.306Z,0
2022-12-05T00:38:51.279Z,0
2022-12-05T00:39:51.276Z,0
2022-12-05T00:40:51.288Z,0
2022-12-05T00:41:51.246Z,0
2022-12-05T00:42:51.235Z,0
2022-12-05T00:43:51.328Z,0
2022-12-05T00:44:51.248Z,0
2022-12-05T00:45:51.220Z,0
2022-12-05T00:46:51.227Z,76.67
2022-12-05T00:47:51.186Z,0
2022-12-05T00:48:51.181Z,0
2022-12-05T00:49:51.289Z,0
2022-12-05T00:50:51.193Z,0
2022-12-05T00:51:51.189Z,0
2022-12-05T00:52:51.153Z,77.32
2022-12-05T00:53:51.172Z,0
2022-12-05T00:54:51.118Z,0
2022-12-05T00:55:51.130Z,0
2022-12-05T00:56:51.144Z,0
2022-12-05T00:57:51.097Z,0
2022-12-05T00:58:51.088Z,0
2022-12-05T00:59:51.074Z,0
2022-12-05T01:00:51.070Z,0
2022-12-05T01:01:51.048Z,0
2022-12-05T01:02:51.041Z,0
2022-12-05T01:03:51.045Z,0
2022-12-05T01:04:51.058Z,0
2022-12-05T01:05:51.007Z,0
2022-12-05T01:06:51.057Z,0
2022-12-05T01:07:50.990Z,0
2022-12-05T01:08:51.073Z,0
2022-12-05T01:09:50.962Z,0
2022-12-05T01:10:50.953Z,0
2022-12-05T01:11:50.943Z,0
2022-12-05T01:12:50.929Z,0
2022-12-05T01:13:50.924Z,0
2022-12-05T01:14:50.986Z,0
2022-12-05T01:15:50.914Z,0
2022-12-05T01:16:50.892Z,0
2022-12-05T01:17:50.885Z,0
2022-12-05T01:18:50.878Z,0
2022-12-05T01:19:50.858Z,0
2022-12-05T01:20:50.850Z,0
2022-12-05T01:21:50.865Z,0
2022-12-05T01:22:50.840Z,0
2022-12-05T01:23:50.825Z,0
2022-12-05T01:24:50.817Z,0
2022-12-05T01:25:50.834Z,0
2022-12-05T01:26:50.792Z,0
2022-12-05T01:27:50.785Z,0
2022-12-05T01:28:50.783Z,0
2022-12-05T01:29:50.759Z,0
2022-12-05T01:30:50.752Z,75.53
2022-12-05T01:31:50.749Z,75.74
2022-12-05T01:32:50.731Z,75.63
2022-12-05T01:33:50.719Z,0
2022-12-05T01:34:50.735Z,0
2022-12-05T01:35:50.741Z,75.29
2022-12-05T01:36:50.697Z,0
2022-12-05T01:37:50.673Z,0
2022-12-05T01:38:50.670Z,75.63
2022-12-05T01:39:50.659Z,75.53
2022-12-05T01:40:50.644Z,75.53
2022-12-05T01:41:50.638Z,75.53
2022-12-05T01:42:50.640Z,75.53
2022-12-05T01:43:50.881Z,75.95
2022-12-05T01:44:50.603Z,0
2022-12-05T01:45:50.602Z,76.81
2022-12-05T01:46:50.583Z,76.7
2022-12-05T01:47:50.617Z,76.6
2022-12-05T01:48:50.571Z,76.46
2022-12-05T01:49:50.558Z,76.35
2022-12-05T01:50:50.544Z,0
2022-12-05T01:51:50.547Z,75.74
2022-12-05T01:52:50.530Z,0
2022-12-05T01:53:50.520Z,0
2022-12-05T01:54:50.511Z,0
2022-12-05T01:55:50.501Z,75.87
2022-12-05T01:56:50.488Z,76.6
2022-12-05T01:57:50.485Z,77.01
2022-12-05T01:58:50.463Z,76.67
2022-12-05T01:59:50.453Z,76.35
2022-12-05T02:00:50.447Z,76.29
2022-12-05T02:01:50.444Z,76.08
2022-12-05T02:02:50.422Z,76.94
2022-12-05T02:03:50.416Z,0
2022-12-05T02:04:50.403Z,77.04
2022-12-05T02:05:50.404Z,77.77
2022-12-05T02:06:50.398Z,78.01
2022-12-05T02:07:50.371Z,78.74
2022-12-05T02:08:50.376Z,78.53
2022-12-05T02:09:50.354Z,78.56
2022-12-05T02:10:50.343Z,79.08
2022-12-05T02:11:50.335Z,79.39
2022-12-05T02:12:50.315Z,79.49
2022-12-05T02:13:50.308Z,0
2022-12-05T02:14:50.300Z,79.49
2022-12-05T02:15:50.292Z,79.05
2022-12-05T02:16:50.281Z,79.08
2022-12-05T02:17:50.263Z,79.29
2022-12-05T02:18:50.261Z,79.19
2022-12-05T02:19:50.252Z,79.63
2022-12-05T02:20:50.239Z,80.11
2022-12-05T02:21:50.229Z,0
2022-12-05T02:22:50.214Z,79.25
2022-12-05T02:23:50.211Z,79.08
2022-12-05T02:24:50.212Z,79.19
2022-12-05T02:25:50.186Z,79.08
2022-12-05T02:26:50.180Z,79.6
2022-12-05T02:27:50.207Z,79.91
2022-12-05T02:28:50.160Z,79.7
2022-12-05T02:29:50.155Z,79.49
2022-12-05T02:30:50.137Z,79.7
2022-12-05T02:31:50.128Z,79.77
2022-12-05T02:32:50.116Z,79.25
2022-12-05T02:33:50.123Z,79.15
2022-12-05T02:34:50.097Z,79.05
2022-12-05T02:35:50.089Z,78.53
2022-12-05T02:36:50.088Z,79.08
2022-12-05T02:37:50.067Z,79.25
2022-12-05T02:38:50.058Z,78.94
2022-12-05T02:39:50.049Z,79.36
2022-12-05T02:40:50.033Z,78.94
2022-12-05T02:41:50.032Z,78.49
2022-12-05T02:42:50.026Z,78.53
2022-12-05T02:43:50.006Z,78.42
2022-12-05T02:44:49.997Z,78.8
2022-12-05T02:45:49.987Z,78.28
2022-12-05T02:46:49.974Z,78.18
2022-12-05T02:47:49.967Z,78.59
2022-12-05T02:48:49.959Z,78.28
2022-12-05T02:49:49.942Z,78.28
2022-12-05T02:50:49.930Z,78.39
2022-12-05T02:51:49.920Z,78.05
2022-12-05T02:52:49.913Z,77.73
2022-12-05T02:53:49.900Z,77.32
2022-12-05T02:54:49.890Z,77.53
2022-12-05T02:55:49.880Z,77.63
2022-12-05T02:56:49.881Z,77.46
2022-12-05T02:57:49.870Z,77.87
2022-12-05T02:58:49.875Z,78.18
2022-12-05T02:59:49.843Z,78.08
2022-12-05T03:00:49.829Z,78.14
2022-12-05T03:01:49.831Z,77.84
2022-12-05T03:02:49.808Z,77.49
2022-12-05T03:03:49.807Z,77.32
2022-12-05T03:04:49.795Z,77.53
2022-12-05T03:05:49.780Z,77.39
2022-12-05T03:06:49.769Z,77.18
2022-12-05T03:07:49.763Z,76.87
2022-12-05T03:08:49.780Z,76.77
2022-12-05T03:09:49.736Z,76.77
2022-12-05T03:10:49.726Z,76.56
2022-12-05T03:11:49.716Z,76.46
2022-12-05T03:12:49.705Z,76.53
2022-12-05T03:13:49.699Z,76.42
2022-12-05T03:14:49.695Z,0
2022-12-05T03:15:49.680Z,0
2022-12-05T03:16:49.682Z,76.46
2022-12-05T03:17:49.710Z,0
2022-12-05T03:18:49.667Z,76.77
2022-12-05T03:19:49.637Z,76.56
2022-12-05T03:20:49.628Z,0
2022-12-05T03:21:49.617Z,76.25
2022-12-05T03:22:49.612Z,76.35
2022-12-05T03:23:49.599Z,76.77
2022-12-05T03:24:49.586Z,76.77
2022-12-05T03:25:49.575Z,76.63
2022-12-05T03:26:49.568Z,76.53
2022-12-05T03:27:49.554Z,76.32
2022-12-05T03:28:49.546Z,76.12
2022-12-05T03:29:49.533Z,75.91
2022-12-05T03:30:49.526Z,75.91
2022-12-05T03:31:49.520Z,76.01
2022-12-05T03:32:49.502Z,76.21
2022-12-05T03:33:49.498Z,76.12
2022-12-05T03:34:49.492Z,76.01
2022-12-05T03:35:49.475Z,75.81
2022-12-05T03:36:49.462Z,75.43
2022-12-05T03:37:49.455Z,75.95
2022-12-05T03:38:49.448Z,76.04
2022-12-05T03:39:49.432Z,76.25
2022-12-05T03:40:49.422Z,76.21
2022-12-05T03:41:49.418Z,75.81
2022-12-05T03:42:49.405Z,75.81
2022-12-05T03:43:49.389Z,75.77
2022-12-05T03:44:49.384Z,75.46
2022-12-05T03:45:49.376Z,75.26
2022-12-05T03:46:49.375Z,75.15
2022-12-05T03:47:49.352Z,75.12
2022-12-05T03:48:49.347Z,74.91
2022-12-05T03:49:49.331Z,74.8
2022-12-05T03:50:49.320Z,74.71
2022-12-05T03:51:49.313Z,74.63
2022-12-05T03:52:49.301Z,74.8
2022-12-05T03:53:49.288Z,74.71
2022-12-05T03:54:49.294Z,74.5
2022-12-05T03:55:49.268Z,74.5
2022-12-05T03:56:49.297Z,74.12
2022-12-05T03:57:49.297Z,74.57
2022-12-05T03:58:49.259Z,74.88
2022-12-05T03:59:49.229Z,75.09
2022-12-05T04:00:49.232Z,75.63
2022-12-05T04:01:49.207Z,75.74
2022-12-05T04:02:49.194Z,75.84
2022-12-05T04:03:49.181Z,75.95
2022-12-05T04:04:49.171Z,76.04
2022-12-05T04:05:49.164Z,76.15
2022-12-05T04:06:49.154Z,76.25
2022-12-05T04:07:49.140Z,76.56
2022-12-05T04:08:49.131Z,76.21
2022-12-05T04:09:49.118Z,76.25
2022-12-05T04:10:49.109Z,75.95
2022-12-05T04:11:49.098Z,76.35
2022-12-05T04:12:49.086Z,76.04
2022-12-05T04:13:49.082Z,76.46
2022-12-05T04:14:49.075Z,76.12
2022-12-05T04:15:49.057Z,75.81
2022-12-05T04:16:49.050Z,75.6
2022-12-05T04:17:49.035Z,75.6
2022-12-05T04:18:49.034Z,75.18
2022-12-05T04:19:49.021Z,75.46
2022-12-05T04:20:49.020Z,75.36
2022-12-05T04:21:48.999Z,75.36
2022-12-05T04:22:48.989Z,75.36
2022-12-05T04:23:48.982Z,75.12
2022-12-05T04:24:48.966Z,75.01
2022-12-05T04:25:48.961Z,0
2022-12-05T04:26:48.989Z,74.5
2022-12-05T04:27:48.936Z,0
2022-12-05T04:28:48.923Z,0
2022-12-05T04:29:48.929Z,0
2022-12-05T04:30:48.909Z,0
2022-12-05T04:31:48.900Z,0
2022-12-05T04:32:48.882Z,0
2022-12-05T04:33:48.876Z,0
2022-12-05T04:34:48.867Z,0
2022-12-05T04:35:48.864Z,0
2022-12-05T04:36:48.854Z,0
2022-12-05T04:37:48.829Z,0
2022-12-05T04:38:48.823Z,0
2022-12-05T04:39:48.813Z,0
2022-12-05T04:40:48.804Z,0
2022-12-05T04:41:48.790Z,0
2022-12-05T04:42:48.782Z,0
2022-12-05T04:43:48.773Z,0
2022-12-05T04:44:48.763Z,0
2022-12-05T04:45:48.751Z,0
2022-12-05T04:46:48.743Z,0
2022-12-05T04:47:48.733Z,0
2022-12-05T04:48:48.724Z,0
2022-12-05T04:49:48.716Z,0
2022-12-05T04:50:48.699Z,0
2022-12-05T04:51:48.688Z,0
2022-12-05T04:52:48.680Z,0
2022-12-05T04:53:48.668Z,0
2022-12-05T04:54:48.657Z,0
2022-12-05T04:55:48.654Z,0
2022-12-05T04:56:48.634Z,0
2022-12-05T04:57:48.627Z,0
2022-12-05T04:58:48.617Z,0
2022-12-05T04:59:48.604Z,0
2022-12-05T05:00:48.599Z,0
2022-12-05T05:01:48.590Z,0
2022-12-05T05:02:48.577Z,0
2022-12-05T05:03:48.584Z,0
2022-12-05T05:04:48.553Z,0
2022-12-05T05:05:48.554Z,0
2022-12-05T05:06:48.536Z,0
2022-12-05T05:07:48.524Z,0
2022-12-05T05:08:48.510Z,0
2022-12-05T05:09:48.503Z,0
2022-12-05T05:10:48.494Z,0
2022-12-05T05:11:48.484Z,0
2022-12-05T05:12:48.477Z,0
2022-12-05T05:13:48.461Z,0
2022-12-05T05:14:48.453Z,0
2022-12-05T05:15:48.444Z,0
2022-12-05T05:16:48.431Z,0
2022-12-05T05:17:48.418Z,0
2022-12-05T05:18:48.412Z,0
2022-12-05T05:19:48.399Z,0
2022-12-05T05:20:48.391Z,0
2022-12-05T05:21:48.379Z,0
2022-12-05T05:22:48.371Z,0
2022-12-05T05:23:48.356Z,0
2022-12-05T05:24:48.349Z,0
2022-12-05T05:25:48.371Z,0
2022-12-05T05:26:48.328Z,0
2022-12-05T05:27:48.318Z,0
2022-12-05T05:28:48.307Z,0
2022-12-05T05:29:48.294Z,0
2022-12-05T05:30:48.286Z,0
2022-12-05T05:31:48.295Z,0
2022-12-05T05:32:48.277Z,0
2022-12-05T05:33:48.256Z,0
2022-12-05T05:34:48.245Z,0
2022-12-05T05:35:48.241Z,0
2022-12-05T05:36:48.228Z,0
2022-12-05T05:37:48.249Z,0
2022-12-05T05:38:48.205Z,0
2022-12-05T05:39:48.200Z,0
2022-12-05T05:40:48.184Z,0
2022-12-05T05:41:48.176Z,0
2022-12-05T05:42:48.166Z,0
2022-12-05T05:43:48.158Z,0
2022-12-05T05:44:48.145Z,0
2022-12-05T05:45:48.137Z,0
2022-12-05T05:46:48.126Z,0
2022-12-05T05:47:48.113Z,0
2022-12-05T05:48:48.102Z,0
2022-12-05T05:49:48.108Z,0
2022-12-05T05:50:48.083Z,0
2022-12-05T05:51:48.071Z,0
2022-12-05T05:52:48.058Z,0
2022-12-05T05:53:48.054Z,0
2022-12-05T05:54:48.042Z,0
2022-12-05T05:55:48.039Z,0
2022-12-05T05:56:48.023Z,0
2022-12-05T05:57:48.008Z,0
2022-12-05T05:58:48.006Z,0
2022-12-05T05:59:47.991Z,0
2022-12-05T06:00:47.985Z,0
2022-12-05T06:01:47.975Z,0
2022-12-05T06:02:47.955Z,0
2022-12-05T06:03:47.953Z,0
2022-12-05T06:04:47.941Z,0
2022-12-05T06:05:47.930Z,0
2022-12-05T06:06:47.920Z,0
2022-12-05T06:07:47.909Z,0
2022-12-05T06:08:47.899Z,0
2022-12-05T06:09:47.896Z,0
2022-12-05T06:10:47.881Z,0
2022-12-05T06:11:47.877Z,0
2022-12-05T06:12:47.858Z,0
2022-12-05T06:13:47.851Z,0
2022-12-05T06:14:47.842Z,0
2022-12-05T06:15:47.829Z,0
2022-12-05T06:16:47.826Z,0
2022-12-05T06:17:47.812Z,0
2022-12-05T06:18:47.807Z,0
2022-12-05T06:19:47.794Z,0
2022-12-05T06:20:47.783Z,0
2022-12-05T06:21:47.779Z,0
2022-12-05T06:22:47.775Z,0
2022-12-05T06:23:47.762Z,0
2022-12-05T06:24:47.748Z,77.45
2022-12-05T06:25:47.740Z,77.25
2022-12-05T06:26:47.724Z,77.15
2022-12-05T06:27:47.718Z,77.76
2022-12-05T06:28:47.701Z,77.66
2022-12-05T06:29:47.691Z,77.83
2022-12-05T06:30:47.692Z,77.62
2022-12-05T06:31:47.672Z,77.42
2022-12-05T06:32:47.663Z,77.22
2022-12-05T06:33:47.651Z,77.15
2022-12-05T06:34:47.649Z,0
2022-12-05T06:35:47.649Z,0
2022-12-05T06:36:47.625Z,77.76
2022-12-05T06:37:47.612Z,0
2022-12-05T06:38:47.604Z,0
2022-12-05T06:39:47.591Z,0
2022-12-05T06:40:47.580Z,0
2022-12-05T06:41:47.575Z,0
2022-12-05T06:42:47.563Z,0
2022-12-05T06:43:47.552Z,0
2022-12-05T06:44:47.545Z,0
2022-12-05T06:45:47.536Z,0
2022-12-05T06:46:47.519Z,0
2022-12-05T06:47:47.511Z,0
2022-12-05T06:48:47.503Z,0
2022-12-05T06:49:47.493Z,0
2022-12-05T06:50:47.482Z,0
2022-12-05T06:51:47.471Z,0
2022-12-05T06:52:47.461Z,0
2022-12-05T06:53:47.448Z,0
2022-12-05T06:54:47.438Z,0
2022-12-05T06:55:47.440Z,0
2022-12-05T06:56:47.419Z,0
2022-12-05T06:57:47.404Z,0
2022-12-05T06:58:47.401Z,0
2022-12-05T06:59:47.388Z,0
2022-12-05T07:00:47.377Z,0
2022-12-05T07:01:47.376Z,0
2022-12-05T07:02:47.357Z,0
2022-12-05T07:03:47.351Z,0
2022-12-05T07:04:47.337Z,0
2022-12-05T07:05:47.331Z,0
2022-12-05T07:06:47.317Z,0
2022-12-05T07:07:47.307Z,0
2022-12-05T07:08:47.294Z,0
2022-12-05T07:09:47.306Z,0
2022-12-05T07:10:47.280Z,0
2022-12-05T07:11:47.266Z,0
2022-12-05T07:12:47.256Z,0
2022-12-05T07:13:47.248Z,0
2022-12-05T07:14:47.240Z,0
2022-12-05T07:15:47.227Z,0
2022-12-05T07:16:47.215Z,0
2022-12-05T07:17:47.202Z,0
2022-12-05T07:18:47.193Z,0
2022-12-05T07:19:47.187Z,0
2022-12-05T07:20:47.178Z,0
2022-12-05T07:21:47.170Z,0
2022-12-05T07:22:47.159Z,0
2022-12-05T07:23:47.142Z,0
2022-12-05T07:24:47.133Z,0
2022-12-05T07:25:47.126Z,0
2022-12-05T07:26:47.111Z,0
2022-12-05T07:27:47.100Z,0
2022-12-05T07:28:47.091Z,0
2022-12-05T07:29:47.086Z,0
2022-12-05T07:30:47.076Z,0
2022-12-05T07:31:47.060Z,0
2022-12-05T07:32:47.058Z,0
2022-12-05T07:33:47.039Z,0
2022-12-05T07:34:47.033Z,0
2022-12-05T07:35:47.029Z,0
2022-12-05T07:36:47.025Z,0
2022-12-05T07:37:47.025Z,0
2022-12-05T07:38:46.994Z,0
2022-12-05T07:39:46.982Z,0
2022-12-05T07:40:46.969Z,0
2022-12-05T07:41:46.957Z,0
2022-12-05T07:42:46.946Z,0
2022-12-05T07:43:46.939Z,0
2022-12-05T07:44:46.932Z,0
2022-12-05T07:45:46.930Z,0
2022-12-05T07:46:46.905Z,0
2022-12-05T07:47:46.896Z,0
2022-12-05T07:48:46.888Z,0
2022-12-05T07:49:46.879Z,0
2022-12-05T07:50:46.868Z,0
2022-12-05T07:51:46.855Z,0
2022-12-05T07:52:46.843Z,0
2022-12-05T07:53:46.835Z,0
2022-12-05T07:54:46.826Z,0
2022-12-05T07:55:46.815Z,0
2022-12-05T07:56:46.798Z,0
2022-12-05T07:57:46.787Z,0
2022-12-05T07:58:46.784Z,0
2022-12-05T07:59:46.772Z,0
2022-12-05T08:00:46.757Z,0
2022-12-05T08:01:46.744Z,0
2022-12-05T08:02:46.739Z,0
2022-12-05T08:03:46.727Z,0
2022-12-05T08:04:46.754Z,0
2022-12-05T08:05:46.708Z,0
2022-12-05T08:06:46.709Z,0
2022-12-05T08:07:46.689Z,0
2022-12-05T08:08:46.675Z,0
2022-12-05T08:09:46.667Z,0
2022-12-05T08:10:46.662Z,0
2022-12-05T08:11:46.663Z,0
2022-12-05T08:12:46.637Z,0
2022-12-05T08:13:46.627Z,0
2022-12-05T08:14:46.614Z,0
2022-12-05T08:15:46.607Z,0
2022-12-05T08:16:46.596Z,0
2022-12-05T08:17:46.606Z,0
2022-12-05T08:18:46.578Z,0
2022-12-05T08:19:46.559Z,0
2022-12-05T08:20:46.553Z,0
2022-12-05T08:21:46.544Z,0
2022-12-05T08:22:46.535Z,0
2022-12-05T08:23:46.520Z,0
2022-12-05T08:24:46.513Z,0
2022-12-05T08:25:46.501Z,0
2022-12-05T08:26:46.490Z,0
2022-12-05T08:27:46.479Z,0
2022-12-05T08:28:46.490Z,0
2022-12-05T08:29:46.471Z,0
2022-12-05T08:30:46.453Z,0
2022-12-05T08:31:46.444Z,0
2022-12-05T08:32:46.433Z,0
2022-12-05T08:33:46.436Z,0
2022-12-05T08:34:46.407Z,0
2022-12-05T08:35:46.399Z,0
2022-12-05T08:36:46.385Z,0
2022-12-05T08:37:46.378Z,0
2022-12-05T08:38:46.382Z,0
2022-12-05T08:39:46.362Z,0
2022-12-05T08:40:46.348Z,0
2022-12-05T08:41:46.337Z,0
2022-12-05T08:42:46.331Z,0
2022-12-05T08:43:46.314Z,0
2022-12-05T08:44:46.314Z,0
2022-12-05T08:45:46.294Z,0
2022-12-05T08:46:46.289Z,0
2022-12-05T08:47:46.272Z,0
2022-12-05T08:48:46.276Z,0
2022-12-05T08:49:46.253Z,0
2022-12-05T08:50:46.241Z,0
2022-12-05T08:51:46.228Z,0
2022-12-05T08:52:46.219Z,0
2022-12-05T08:53:46.208Z,0
2022-12-05T08:54:46.200Z,0
2022-12-05T08:55:46.188Z,0
2022-12-05T08:56:46.180Z,0
2022-12-05T08:57:46.167Z,0
2022-12-05T08:58:46.179Z,0
2022-12-05T08:59:46.147Z,0
2022-12-05T09:00:46.147Z,0
2022-12-05T09:01:46.128Z,0
2022-12-05T09:02:46.114Z,0
2022-12-05T09:03:46.128Z,0
2022-12-05T09:04:46.094Z,0
2022-12-05T09:05:46.157Z,0
2022-12-05T09:06:46.140Z,0
2022-12-05T09:07:46.071Z,0
2022-12-05T09:08:46.081Z,0
2022-12-05T09:09:46.056Z,0
2022-12-05T09:10:46.034Z,0
2022-12-05T09:11:46.023Z,0
2022-12-05T09:12:46.012Z,0
2022-12-05T09:13:46.003Z,0
2022-12-05T09:14:45.993Z,81.19
2022-12-05T09:15:45.985Z,0
2022-12-05T09:16:45.969Z,0
2022-12-05T09:17:45.992Z,0
2022-12-05T09:18:45.960Z,0
2022-12-05T09:19:45.984Z,0
2022-12-05T09:20:45.945Z,0
2022-12-05T09:21:45.920Z,0
2022-12-05T09:22:45.904Z,0
2022-12-05T09:23:45.902Z,0
2022-12-05T09:24:45.892Z,0
2022-12-05T09:25:45.880Z,0
2022-12-05T09:26:45.867Z,0
2022-12-05T09:27:45.929Z,0
2022-12-05T09:28:45.872Z,0
2022-12-05T09:29:46.833Z,0
2022-12-05T09:30:45.826Z,0
2022-12-05T09:31:45.812Z,0
2022-12-05T09:32:45.844Z,0
2022-12-05T09:33:45.797Z,0
2022-12-05T09:34:45.783Z,0
2022-12-05T09:35:45.769Z,0
2022-12-05T09:36:45.761Z,0
2022-12-05T09:37:45.773Z,0
2022-12-05T09:38:45.739Z,0
2022-12-05T09:39:45.736Z,0
2022-12-05T09:40:45.721Z,0
2022-12-05T09:41:45.728Z,0
2022-12-05T09:42:45.707Z,0
2022-12-05T09:43:45.692Z,0
2022-12-05T09:44:45.700Z,0
2022-12-05T09:45:45.670Z,0
2022-12-05T09:46:45.666Z,0
2022-12-05T09:47:45.659Z,0
2022-12-05T09:48:45.634Z,0
2022-12-05T09:49:45.627Z,0
2022-12-05T09:50:45.621Z,0
2022-12-05T09:51:45.675Z,0
2022-12-05T09:52:45.621Z,0
2022-12-05T09:53:45.589Z,0
2022-12-05T09:54:45.592Z,0
2022-12-05T09:55:45.565Z,0
2022-12-05T09:56:45.609Z,0
2022-12-05T09:57:45.547Z,0
2022-12-05T09:58:45.534Z,0
2022-12-05T09:59:45.525Z,0
2022-12-05T10:00:45.523Z,0
2022-12-05T10:01:45.528Z,0
2022-12-05T10:02:45.505Z,0
2022-12-05T10:03:45.500Z,0
2022-12-05T10:04:45.501Z,0
2022-12-05T10:05:45.499Z,0
2022-12-05T10:06:45.451Z,0
2022-12-05T10:07:45.443Z,0
2022-12-05T10:08:45.444Z,0
2022-12-05T10:09:45.424Z,0
2022-12-05T10:10:45.443Z,0
2022-12-05T10:11:45.420Z,0
2022-12-05T10:12:45.383Z,0
2022-12-05T10:13:45.378Z,0
2022-12-05T10:14:45.365Z,0
2022-12-05T10:15:45.421Z,0
2022-12-05T10:16:45.417Z,0
2022-12-05T10:17:45.329Z,0
2022-12-05T10:18:45.324Z,0
2022-12-05T10:19:45.316Z,0
2022-12-05T10:20:45.318Z,0
2022-12-05T10:21:45.290Z,0
2022-12-05T10:22:45.314Z,0
2022-12-05T10:23:45.291Z,0
2022-12-05T10:24:45.269Z,0
2022-12-05T10:25:45.264Z,0
2022-12-05T10:26:45.244Z,0
2022-12-05T10:27:45.250Z,0
2022-12-05T10:28:45.217Z,0
2022-12-05T10:29:45.213Z,0
2022-12-05T10:30:45.200Z,0
2022-12-05T10:31:45.223Z,0
2022-12-05T10:32:45.172Z,0
2022-12-05T10:33:45.184Z,0
2022-12-05T10:34:45.162Z,0
2022-12-05T10:35:45.175Z,0
2022-12-05T10:36:45.135Z,0
2022-12-05T10:37:45.166Z,0
2022-12-05T10:38:45.138Z,0
2022-12-05T10:39:45.137Z,0
2022-12-05T10:40:45.103Z,0
2022-12-05T10:41:45.108Z,0
2022-12-05T10:42:45.080Z,0
2022-12-05T10:43:45.059Z,0
2022-12-05T10:44:45.065Z,0
2022-12-05T10:45:45.057Z,0
2022-12-05T10:46:45.052Z,0
2022-12-05T10:47:45.022Z,0
2022-12-05T10:48:45.011Z,0
2022-12-05T10:49:45.003Z,0
2022-12-05T10:50:45.002Z,0
2022-12-05T10:51:44.993Z,0
2022-12-05T10:52:45.049Z,0
2022-12-05T10:53:44.960Z,0
2022-12-05T10:54:44.947Z,0
2022-12-05T10:55:44.944Z,0
2022-12-05T10:56:44.943Z,0
2022-12-05T10:57:44.917Z,0
2022-12-05T10:58:44.904Z,0
2022-12-05T10:59:44.909Z,0
2022-12-05T11:00:44.890Z,0
2022-12-05T11:01:44.881Z,0
2022-12-05T11:02:44.867Z,0
2022-12-05T11:03:44.860Z,0
2022-12-05T11:04:44.844Z,0
2022-12-05T11:05:44.832Z,0
2022-12-05T11:06:44.823Z,0
2022-12-05T11:07:44.812Z,0
2022-12-05T11:09:44.834Z,0
2022-12-05T11:10:44.785Z,0
2022-12-05T11:11:44.775Z,0
2022-12-05T11:12:44.766Z,0
2022-12-05T11:13:44.750Z,0
2022-12-05T11:14:44.752Z,0
2022-12-05T11:15:44.737Z,0
2022-12-05T11:16:44.742Z,0
2022-12-05T11:17:44.722Z,0
2022-12-05T11:18:44.705Z,0
2022-12-05T11:19:44.695Z,0
2022-12-05T11:20:44.728Z,0
2022-12-05T11:21:44.684Z,0
2022-12-05T11:22:44.668Z,0
2022-12-05T11:23:44.657Z,0
2022-12-05T11:24:44.640Z,0
2022-12-05T11:25:44.643Z,0
2022-12-05T11:26:44.629Z,0
2022-12-05T11:27:44.613Z,0
2022-12-05T11:28:44.600Z,0
2022-12-05T11:29:44.593Z,0
2022-12-05T11:30:44.588Z,0
2022-12-05T11:31:44.592Z,0
2022-12-05T11:32:44.560Z,0
2022-12-05T11:33:44.652Z,0
2022-12-05T11:34:44.541Z,0
2022-12-05T11:35:44.533Z,0
2022-12-05T11:36:44.519Z,0
2022-12-05T11:37:44.660Z,0
2022-12-05T11:38:44.656Z,0
2022-12-05T11:39:44.523Z,0
2022-12-05T11:40:44.475Z,0
2022-12-05T11:41:44.468Z,0
2022-12-05T11:42:44.454Z,0
2022-12-05T11:43:44.447Z,0
2022-12-05T11:44:44.433Z,0
2022-12-05T11:45:44.648Z,0
2022-12-05T11:46:44.410Z,0
2022-12-05T11:47:44.416Z,0
2022-12-05T11:48:44.399Z,0
2022-12-05T11:49:44.386Z,0
2022-12-05T11:50:44.380Z,0
2022-12-05T11:51:44.364Z,0
2022-12-05T11:52:44.386Z,0
2022-12-05T11:53:44.342Z,0
2022-12-05T11:54:44.334Z,0
2022-12-05T11:55:44.324Z,0
2022-12-05T11:56:44.314Z,0
2022-12-05T11:57:44.338Z,0
2022-12-05T11:58:44.287Z,0
2022-12-05T11:59:44.287Z,0
2022-12-05T12:00:44.270Z,0
2022-12-05T12:01:44.263Z,0
2022-12-05T12:02:44.251Z,0
2022-12-05T12:03:44.235Z,0
2022-12-05T12:04:44.242Z,0
2022-12-05T12:05:44.242Z,0
2022-12-05T12:06:44.216Z,0
2022-12-05T12:07:44.198Z,0
2022-12-05T12:08:44.187Z,0
2022-12-05T12:09:44.177Z,0
2022-12-05T12:10:44.191Z,0
2022-12-05T12:11:44.159Z,0
2022-12-05T12:12:44.161Z,0
2022-12-05T12:13:44.150Z,0
2022-12-05T12:14:44.130Z,0
2022-12-05T12:15:44.112Z,0
2022-12-05T12:16:44.100Z,0
2022-12-05T12:17:44.109Z,0
2022-12-05T12:18:44.104Z,0
2022-12-05T12:19:44.152Z,0
2022-12-05T12:20:44.064Z,0
2022-12-05T12:21:44.047Z,0
2022-12-05T12:22:44.039Z,0
2022-12-05T12:23:44.037Z,0
2022-12-05T12:24:44.032Z,0
2022-12-05T12:25:44.007Z,0
2022-12-05T12:26:44.024Z,0
2022-12-05T12:27:43.986Z,0
2022-12-05T12:28:43.974Z,0
2022-12-05T12:29:43.970Z,0
2022-12-05T12:30:43.981Z,0
2022-12-05T12:31:43.969Z,0
2022-12-05T12:32:43.955Z,0
2022-12-05T12:33:43.922Z,0
2022-12-05T12:34:43.922Z,0
2022-12-05T12:35:43.914Z,0
2022-12-05T12:36:43.914Z,0
2022-12-05T12:37:43.884Z,0
2022-12-05T12:38:43.950Z,0
2022-12-05T12:39:43.857Z,0
2022-12-05T12:40:43.847Z,0
2022-12-05T12:41:43.842Z,0
2022-12-05T12:42:43.838Z,0
2022-12-05T12:43:43.818Z,0
2022-12-05T12:44:43.809Z,0
2022-12-05T12:45:43.804Z,0
2022-12-05T12:46:43.795Z,0
2022-12-05T12:47:43.802Z,0
2022-12-05T12:48:43.792Z,0
2022-12-05T12:49:43.759Z,0
2022-12-05T12:50:43.750Z,0
2022-12-05T12:51:43.735Z,0
2022-12-05T12:52:44.173Z,0
2022-12-05T12:53:43.723Z,0
2022-12-05T12:55:43.703Z,0
2022-12-05T12:56:44.397Z,0
2022-12-05T12:57:43.693Z,0
2022-12-05T12:58:43.660Z,0
2022-12-05T12:59:43.661Z,0
2022-12-05T13:00:43.645Z,0
2022-12-05T13:01:43.633Z,0
2022-12-05T13:02:43.623Z,0
2022-12-05T13:03:43.608Z,0
2022-12-05T13:04:43.639Z,0
2022-12-05T13:05:43.624Z,0
2022-12-05T13:06:43.604Z,0
2022-12-05T13:07:43.594Z,0
2022-12-05T13:08:43.557Z,0
2022-12-05T13:09:43.548Z,0
2022-12-05T13:10:43.547Z,0
2022-12-05T13:11:43.606Z,0
2022-12-05T13:12:44.515Z,0
2022-12-05T13:13:43.513Z,0
2022-12-05T13:14:43.497Z,0
2022-12-05T13:15:43.486Z,0
2022-12-05T13:16:43.485Z,0
2022-12-05T13:17:43.460Z,0
2022-12-05T13:18:43.452Z,0
2022-12-05T13:19:43.455Z,0
2022-12-05T13:20:43.433Z,0
2022-12-05T13:21:43.419Z,0
2022-12-05T13:22:43.536Z,0
2022-12-05T13:23:43.415Z,0
2022-12-05T13:24:43.387Z,0
2022-12-05T13:25:43.384Z,0
2022-12-05T13:26:43.369Z,0
2022-12-05T13:27:43.359Z,0
2022-12-05T13:28:43.359Z,0
2022-12-05T13:29:43.358Z,0
2022-12-05T13:30:43.329Z,0
2022-12-05T13:31:43.364Z,0
2022-12-05T13:32:43.309Z,0
2022-12-05T13:33:43.297Z,0
2022-12-05T13:34:43.286Z,0
2022-12-05T13:35:43.279Z,0
2022-12-05T13:36:43.327Z,0
2022-12-05T13:37:43.473Z,0
2022-12-05T13:38:43.243Z,0
2022-12-05T13:39:43.341Z,0
2022-12-05T13:40:44.219Z,0
2022-12-05T13:41:43.215Z,0
2022-12-05T13:42:43.201Z,0
2022-12-05T13:43:43.271Z,0
2022-12-05T13:44:43.270Z,0
2022-12-05T13:45:43.179Z,0
2022-12-05T13:46:43.177Z,0
2022-12-05T13:47:43.163Z,0
2022-12-05T13:48:43.155Z,0
2022-12-05T13:49:43.133Z,0
2022-12-05T13:50:43.118Z,0
2022-12-05T13:51:43.111Z,0
2022-12-05T13:52:43.099Z,0
2022-12-05T13:53:43.089Z,0
2022-12-05T13:54:43.077Z,0
2022-12-05T13:55:43.068Z,0
2022-12-05T13:56:43.057Z,0
2022-12-05T13:57:43.088Z,0
2022-12-05T13:58:43.039Z,0
2022-12-05T13:59:43.021Z,0
2022-12-05T14:00:43.015Z,0
2022-12-05T14:01:43.002Z,0
2022-12-05T14:02:42.989Z,0
2022-12-05T14:03:42.983Z,0
2022-12-05T14:04:42.976Z,0
2022-12-05T14:05:42.967Z,0
2022-12-05T14:06:42.949Z,0
2022-12-05T14:07:42.943Z,0
2022-12-05T14:08:42.944Z,0
2022-12-05T14:09:42.925Z,0
2022-12-05T14:10:42.927Z,0
2022-12-05T14:11:42.899Z,0
2022-12-05T14:12:42.912Z,0
2022-12-05T14:13:42.908Z,0
2022-12-05T14:14:42.901Z,0
2022-12-05T14:15:42.877Z,0
2022-12-05T14:16:42.865Z,0
2022-12-05T14:17:42.847Z,0
2022-12-05T14:18:42.851Z,0
2022-12-05T14:19:42.816Z,0
2022-12-05T14:20:42.801Z,0
2022-12-05T14:21:42.795Z,0
2022-12-05T14:22:42.787Z,0
2022-12-05T14:23:42.771Z,0
2022-12-05T14:24:42.772Z,0